Time;durP1;ratioP1;P1;durP2;ratioP2;P2;SDS_P1;SDS_P2;PMS_P1;PMS_P2;Temp;Humidity;BMP_temperature;BMP_pressure;BME280_temperature;BME280_humidity;BME280_pressure;Samples;Min_cycle;Max_cycle;Signal;HPM_P1;HPM_P2
2022/08/01 00:02:01;;;;;;;9.95;8.07;;;;;;;16.86;74.25;93361.06;5031045;28;20048;-48
2022/08/01 00:04:26;;;;;;;10.02;9.00;;;;;;;16.67;75.78;93361.84;5030726;28;20041;-49
2022/08/01 00:06:52;;;;;;;11.30;7.88;;;;;;;16.68;74.97;93371.69;5029862;28;20025;-50
2022/08/01 00:09:17;;;;;;;9.60;8.00;;;;;;;16.56;75.66;93365.25;5030315;28;20091;-46
2022/08/01 00:11:43;;;;;;;9.20;8.13;;;;;;;16.51;75.67;93360.72;5030738;28;20021;-47
2022/08/01 00:14:11;;;;;;;9.20;7.95;;;;;;;16.42;75.17;93341.94;5030951;28;20040;-49
2022/08/01 00:16:37;;;;;;;8.18;7.40;;;;;;;16.61;74.68;93355.84;5030964;28;20021;-48
2022/08/01 00:19:03;;;;;;;8.38;7.47;;;;;;;16.64;73.95;93359.50;5030576;28;20040;-49
2022/08/01 00:21:28;;;;;;;9.10;7.60;;;;;;;16.65;73.88;93358.19;5031250;28;20021;-50
2022/08/01 00:23:54;;;;;;;8.63;7.03;;;;;;;16.48;74.35;93352.78;5030318;28;20114;-48
2022/08/01 00:26:19;;;;;;;8.20;7.40;;;;;;;16.60;73.21;93348.09;5030135;28;20419;-46
2022/08/01 00:28:45;;;;;;;9.75;8.60;;;;;;;16.54;73.75;93351.19;5029880;28;20029;-51
2022/08/01 00:31:10;;;;;;;9.38;7.43;;;;;;;16.37;73.96;93350.59;5030090;28;20032;-50
2022/08/01 00:33:35;;;;;;;10.13;7.93;;;;;;;16.31;74.92;93350.88;5029500;28;20087;-51
2022/08/01 00:36:01;;;;;;;8.20;7.32;;;;;;;16.29;74.66;93344.44;5029046;28;20063;-47
2022/08/01 00:38:26;;;;;;;13.50;8.32;;;;;;;16.27;75.02;93347.81;5030173;28;20029;-49
2022/08/01 00:40:52;;;;;;;11.52;8.25;;;;;;;16.21;75.46;93350.19;5030337;28;20026;-47
2022/08/01 00:43:17;;;;;;;9.05;8.15;;;;;;;16.13;75.67;93341.25;5030368;28;20025;-48
2022/08/01 00:45:43;;;;;;;8.82;7.68;;;;;;;16.18;76.37;93343.00;5038856;28;20029;-46
2022/08/01 00:48:08;;;;;;;11.57;7.47;;;;;;;16.13;75.56;93344.03;5031317;28;20048;-47
2022/08/01 00:50:34;;;;;;;8.55;7.75;;;;;;;16.25;75.75;93335.78;5031134;28;20507;-48
2022/08/01 00:53:00;;;;;;;8.07;7.28;;;;;;;16.25;75.42;93330.97;5030036;28;20483;-53
2022/08/01 00:55:29;;;;;;;9.07;7.00;;;;;;;16.14;75.47;93330.81;5030044;28;20053;-52
2022/08/01 00:57:55;;;;;;;7.65;6.95;;;;;;;16.17;75.19;93322.03;5029726;28;20040;-47
2022/08/01 01:00:21;;;;;;;7.32;6.63;;;;;;;16.01;75.45;93325.69;5028006;28;20025;-46
2022/08/01 01:02:47;;;;;;;7.78;6.65;;;;;;;16.10;75.52;93328.50;5030747;28;20215;-47
2022/08/01 01:05:12;;;;;;;7.70;6.97;;;;;;;16.21;75.38;93324.38;5030979;28;20085;-48
2022/08/01 01:07:42;;;;;;;8.05;7.25;;;;;;;15.97;75.16;93328.19;5030990;28;20091;-47
2022/08/01 01:10:20;;;;;;;7.57;6.85;;;;;;;15.95;75.02;93323.22;5027320;28;20037;-48
2022/08/01 01:13:09;;;;;;;9.98;7.05;;;;;;;15.91;75.09;93318.13;5019833;28;20048;-50
2022/08/01 01:15:36;;;;;;;;;;;;;;;15.73;75.18;93310.47;5010911;28;20040;-47
2022/08/01 01:18:17;;;;;;;7.75;6.95;;;;;;;15.67;75.11;93310.78;5013900;28;19912;-47
2022/08/01 01:20:51;;;;;;;6.60;6.00;;;;;;;15.73;74.93;93307.69;5028640;28;20029;-50
2022/08/01 01:23:28;;;;;;;7.65;6.95;;;;;;;15.63;75.30;93307.72;5022779;28;20035;-48
2022/08/01 01:26:13;;;;;;;8.73;7.28;;;;;;;15.53;75.66;93309.72;5029338;28;20460;-51
2022/08/01 01:28:57;;;;;;;7.07;6.40;;;;;;;15.69;74.81;93296.28;5027613;28;20029;-49
2022/08/01 01:31:23;;;;;;;7.47;6.72;;;;;;;15.61;75.57;93296.44;5028488;28;20040;-49
2022/08/01 01:33:49;;;;;;;7.25;6.55;;;;;;;15.59;75.01;93306.69;5030106;28;20033;-48
2022/08/01 01:36:16;;;;;;;10.02;7.47;;;;;;;15.42;75.99;93301.94;5028436;28;20044;-48
2022/08/01 01:38:44;;;;;;;7.70;6.88;;;;;;;15.45;76.05;93297.28;5027769;28;20051;-50
2022/08/01 01:41:11;;;;;;;7.28;6.63;;;;;;;15.46;75.51;93302.28;5028230;28;20048;-50
2022/08/01 01:43:37;;;;;;;8.80;6.65;;;;;;;15.36;74.32;93300.75;5029850;28;20124;-50
2022/08/01 01:46:04;;;;;;;8.27;7.35;;;;;;;15.14;74.64;93297.06;5027980;28;20025;-49
2022/08/01 01:48:30;;;;;;;8.65;6.45;;;;;;;15.09;75.43;93298.81;5028566;28;20060;-49
2022/08/01 01:50:56;;;;;;;7.10;6.38;;;;;;;15.16;74.43;93291.66;5027767;28;20029;-49
2022/08/01 01:53:22;;;;;;;8.23;6.03;;;;;;;15.06;74.87;93290.91;5027481;28;20025;-49
2022/08/01 01:55:52;;;;;;;7.10;6.30;;;;;;;14.95;75.25;93289.41;5029622;28;20064;-48
2022/08/01 01:58:18;;;;;;;6.85;6.15;;;;;;;14.73;76.09;93298.09;5029783;28;20025;-50
2022/08/01 02:00:45;;;;;;;7.32;6.63;;;;;;;14.76;75.74;93292.13;5029286;28;20017;-49
2022/08/01 02:03:12;;;;;;;7.07;5.30;;;;;;;14.86;75.43;93295.66;5028553;28;20080;-49
2022/08/01 02:05:38;;;;;;;5.93;5.32;;;;;;;14.80;75.05;93292.44;5028775;28;20021;-49
2022/08/01 02:08:04;;;;;;;6.45;5.82;;;;;;;14.61;75.14;93286.06;5027458;28;20034;-49
2022/08/01 02:10:31;;;;;;;5.63;5.07;;;;;;;14.80;74.13;93289.66;5029251;28;20048;-49
2022/08/01 02:13:02;;;;;;;6.85;6.03;;;;;;;14.60;75.78;93299.22;5027254;28;20042;-48
2022/08/01 02:15:29;;;;;;;7.97;6.57;;;;;;;14.43;77.41;93299.31;5022898;28;20032;-49
2022/08/01 02:17:56;;;;;;;10.00;6.45;;;;;;;14.52;76.64;93300.66;5026509;28;20435;-48
2022/08/01 02:20:22;;;;;;;7.65;6.85;;;;;;;14.57;76.42;93277.44;5025564;28;20051;-48
2022/08/01 02:22:52;;;;;;;7.78;7.00;;;;;;;14.73;76.10;93298.09;5024382;28;20510;-49
2022/08/01 02:25:25;;;;;;;9.43;6.25;;;;;;;14.65;75.71;93298.25;5025301;28;20079;-48
2022/08/01 02:28:07;;;;;;;5.68;5.07;;;;;;;14.74;74.63;93294.75;5027406;28;20029;-50
2022/08/01 02:30:37;;;;;;;6.32;5.45;;;;;;;14.78;73.44;93294.31;5008876;28;20022;-48
2022/08/01 02:33:05;;;;;;;5.80;5.20;;;;;;;14.74;73.37;93288.47;5010391;28;20037;-49
2022/08/01 02:35:34;;;;;;;7.43;4.90;;;;;;;14.59;75.16;93292.22;5009151;28;20021;-48
2022/08/01 02:38:00;;;;;;;;;;;;;;;14.41;75.68;93293.59;5009358;28;20073;-49
2022/08/01 02:40:32;;;;;;;9.20;4.75;;;;;;;14.29;75.06;93290.59;5009988;28;19936;-50
2022/08/01 02:43:00;;;;;;;5.10;4.60;;;;;;;14.18;75.78;93293.16;5008702;28;20503;-46
2022/08/01 02:45:26;;;;;;;15.27;5.25;;;;;;;14.01;76.16;93273.78;5024469;28;20580;-47
2022/08/01 02:48:00;;;;;;;6.07;5.22;;;;;;;13.68;76.98;93270.50;5029890;28;20033;-50
2022/08/01 02:50:26;;;;;;;6.97;5.72;;;;;;;13.77;78.30;93280.19;5029525;28;20566;-44
2022/08/01 02:52:52;;;;;;;6.20;5.60;;;;;;;13.93;78.27;93293.28;5029532;28;20068;-44
2022/08/01 02:55:19;;;;;;;5.82;5.25;;;;;;;13.94;76.81;93282.94;5028669;28;20045;-46
2022/08/01 02:57:46;;;;;;;5.22;4.68;;;;;;;13.96;76.32;93289.38;5029062;28;20060;-45
2022/08/01 03:00:14;;;;;;;6.28;5.07;;;;;;;13.86;76.72;93280.25;5031602;28;20018;-48
2022/08/01 03:02:40;;;;;;;8.70;5.32;;;;;;;13.87;76.42;93281.72;5033042;28;20157;-49
2022/08/01 03:05:08;;;;;;;7.80;5.55;;;;;;;13.78;76.79;93293.47;5033192;28;20542;-46
2022/08/01 03:07:33;;;;;;;6.45;5.05;;;;;;;13.78;76.65;93298.28;5030858;28;20026;-47
2022/08/01 03:09:59;;;;;;;8.30;5.95;;;;;;;13.80;76.76;93298.44;5031750;28;20478;-49
2022/08/01 03:12:27;;;;;;;7.47;6.53;;;;;;;13.94;76.55;93299.59;5030564;28;20028;-47
2022/08/01 03:14:54;;;;;;;8.85;5.97;;;;;;;13.89;76.58;93297.78;5031064;28;20087;-46
2022/08/01 03:17:21;;;;;;;6.57;5.82;;;;;;;13.95;75.71;93287.91;5030969;28;20025;-45
2022/08/01 03:19:48;;;;;;;6.75;6.05;;;;;;;13.84;76.36;93293.97;5030569;28;20028;-46
2022/08/01 03:22:14;;;;;;;6.63;6.00;;;;;;;13.74;76.43;93297.97;5030873;28;20438;-45
2022/08/01 03:24:41;;;;;;;8.73;6.38;;;;;;;13.80;75.88;93301.22;5032406;28;20087;-46
2022/08/01 03:27:08;;;;;;;6.82;5.40;;;;;;;13.77;75.79;93303.13;5031804;28;20013;-47
2022/08/01 03:29:34;;;;;;;7.22;5.57;;;;;;;13.67;75.84;93297.50;5030892;28;20044;-46
2022/08/01 03:32:00;;;;;;;4.45;4.05;;;;;;;13.85;74.70;93301.00;5031080;28;20021;-46
2022/08/01 03:34:27;;;;;;;6.20;4.70;;;;;;;13.78;74.32;93279.59;5029747;28;20025;-46
2022/08/01 03:37:10;;;;;;;4.95;4.45;;;;;;;13.59;75.69;93301.66;5031086;28;20446;-46
2022/08/01 03:40:01;;;;;;;4.95;4.45;;;;;;;13.76;75.59;93309.97;5032647;28;20029;-46
2022/08/01 03:42:39;;;;;;;5.57;4.72;;;;;;;14.00;73.94;93306.34;5032616;28;20021;-46
2022/08/01 03:45:09;;;;;;;7.38;5.55;;;;;;;13.94;74.33;93305.13;5031363;28;20457;-47
2022/08/01 03:47:35;;;;;;;11.05;5.57;;;;;;;13.88;74.85;93305.38;5022334;28;20590;-47
2022/08/01 03:50:03;;;;;;;6.80;6.05;;;;;;;13.82;75.29;93298.63;5012323;28;20037;-45
2022/08/01 03:52:30;;;;;;;6.40;5.70;;;;;;;13.83;75.18;93300.81;5011301;28;20050;-45
2022/08/01 03:54:58;;;;;;;8.75;5.97;;;;;;;13.72;75.46;93297.81;5022747;28;20032;-49
2022/08/01 03:57:25;;;;;;;5.60;5.07;;;;;;;13.77;75.04;93303.13;5032051;28;20059;-48
2022/08/01 03:59:51;;;;;;;6.03;5.45;;;;;;;13.83;74.86;93308.41;5035670;28;20025;-49
2022/08/01 04:02:18;;;;;;;9.07;6.05;;;;;;;13.89;75.20;93297.78;5030562;28;20045;-49
2022/08/01 04:04:43;;;;;;;8.13;5.50;;;;;;;13.82;75.07;93293.78;5030968;28;20112;-47
2022/08/01 04:07:23;;;;;;;5.72;5.22;;;;;;;13.87;75.68;93295.59;5030715;28;20163;-48
2022/08/01 04:09:48;;;;;;;9.68;6.53;;;;;;;14.00;75.02;93291.72;5031833;28;20032;-46
2022/08/01 04:12:14;;;;;;;6.40;5.80;;;;;;;14.13;75.66;93299.69;5031874;28;20014;-48
2022/08/01 04:14:39;;;;;;;6.35;5.70;;;;;;;14.11;75.45;93294.00;5031730;28;20411;-46
2022/08/01 04:17:05;;;;;;;6.65;5.90;;;;;;;14.23;75.85;93298.44;5031603;28;20061;-47
2022/08/01 04:19:30;;;;;;;143.52;58.50;;;;;;;14.31;75.32;93298.38;5028931;28;20117;-46
2022/08/01 04:21:56;;;;;;;146.55;62.20;;;;;;;14.29;75.71;93301.00;5011796;28;20018;-46
2022/08/01 04:24:23;;;;;;;38.38;19.63;;;;;;;14.33;75.50;93295.75;5011874;28;20022;-46
2022/08/01 04:26:50;;;;;;;13.55;9.82;;;;;;;14.38;76.03;93303.06;5012108;28;20026;-47
2022/08/01 04:29:17;;;;;;;13.00;7.88;;;;;;;14.49;76.85;93308.09;5011625;28;20026;-49
2022/08/01 04:31:45;;;;;;;10.57;7.38;;;;;;;14.64;75.27;93296.03;5011519;28;20093;-46
2022/08/01 04:34:12;;;;;;;12.95;9.43;;;;;;;14.57;75.80;93300.41;5010396;28;20017;-48
2022/08/01 04:36:38;;;;;;;50.10;31.63;;;;;;;14.30;75.92;93271.91;5013122;28;20025;-48
2022/08/01 04:39:04;;;;;;;34.28;22.50;;;;;;;14.62;74.78;93301.44;5031271;28;20039;-49
2022/08/01 04:41:31;;;;;;;24.42;17.85;;;;;;;14.57;74.92;93291.31;5031470;28;20025;-46
2022/08/01 04:43:59;;;;;;;22.10;15.88;;;;;;;14.69;76.38;93309.66;5034825;28;20021;-45
2022/08/01 04:46:24;;;;;;;21.90;16.58;;;;;;;14.63;76.33;93305.69;5050982;28;20027;-45
2022/08/01 04:48:50;;;;;;;26.30;18.92;;;;;;;14.61;76.37;93297.94;5049830;28;20025;-45
2022/08/01 04:51:17;;;;;;;22.13;16.52;;;;;;;14.75;76.78;93290.66;5048396;28;20028;-47
2022/08/01 04:53:45;;;;;;;20.35;15.38;;;;;;;14.83;77.22;93271.84;5041205;28;20108;-46
2022/08/01 04:56:12;;;;;;;24.07;13.87;;;;;;;14.77;77.06;93265.09;5030107;28;20021;-45
2022/08/01 04:58:39;;;;;;;12.45;10.30;;;;;;;14.90;77.67;93284.84;5030577;28;20049;-45
2022/08/01 05:01:05;;;;;;;9.38;6.63;;;;;;;14.92;77.36;93287.78;5030537;28;20037;-45
2022/08/01 05:03:31;;;;;;;7.32;6.63;;;;;;;14.99;76.63;93273.03;5030369;28;20087;-46
2022/08/01 05:05:56;;;;;;;7.78;6.82;;;;;;;15.19;77.22;93276.59;5029943;28;20025;-47
2022/08/01 05:08:21;;;;;;;9.98;7.00;;;;;;;15.22;77.80;93275.44;5028839;28;20029;-46
2022/08/01 05:10:47;;;;;;;8.07;6.15;;;;;;;15.37;78.19;93271.63;5029950;28;20044;-46
2022/08/01 05:13:12;;;;;;;8.30;5.30;;;;;;;15.48;77.67;93277.38;5029344;28;20091;-47
2022/08/01 05:15:38;;;;;;;6.10;4.55;;;;;;;15.58;72.17;93272.53;5030899;28;20029;-46
2022/08/01 05:18:03;;;;;;;8.95;4.80;;;;;;;15.71;73.35;93280.47;5024906;28;20096;-48
2022/08/01 05:20:29;;;;;;;4.78;4.35;;;;;;;15.87;71.67;93278.81;5029805;28;20474;-47
2022/08/01 05:22:54;;;;;;;5.55;4.82;;;;;;;16.07;72.34;93279.53;5030398;28;20025;-48
2022/08/01 05:25:20;;;;;;;7.70;4.93;;;;;;;16.09;72.72;93284.53;5030379;28;20021;-46
2022/08/01 05:27:46;;;;;;;7.63;4.70;;;;;;;16.32;73.13;93279.94;5011701;28;20029;-46
2022/08/01 05:30:12;;;;;;;4.10;3.80;;;;;;;16.42;69.21;93274.31;5010777;28;20033;-47
2022/08/01 05:32:37;;;;;;;3.80;3.40;;;;;;;16.44;70.71;93274.44;5013694;28;20018;-46
2022/08/01 05:35:04;;;;;;;4.90;4.40;;;;;;;16.44;69.32;93277.25;5020873;28;20029;-45
2022/08/01 05:37:29;;;;;;;3.30;3.10;;;;;;;16.52;67.29;93258.34;5015350;28;20405;-46
2022/08/01 05:39:55;;;;;;;3.55;3.20;;;;;;;16.73;65.77;93275.13;5019187;28;20102;-46
2022/08/01 05:42:20;;;;;;;6.18;3.60;;;;;;;16.98;64.88;93281.00;5010472;28;20499;-46
2022/08/01 05:44:47;;;;;;;4.53;3.30;;;;;;;16.98;63.79;93280.28;5038350;28;20086;-47
2022/08/01 05:47:12;;;;;;;5.03;4.13;;;;;;;17.02;65.60;93284.06;5026582;28;20045;-48
2022/08/01 05:49:38;;;;;;;3.88;2.83;;;;;;;17.07;63.18;93280.22;5019676;28;20396;-46
2022/08/01 05:52:04;;;;;;;6.88;2.90;;;;;;;17.14;63.33;93287.69;5020422;28;20028;-46
2022/08/01 05:54:30;;;;;;;3.50;3.20;;;;;;;17.12;61.61;93284.75;5013702;28;20034;-47
2022/08/01 05:56:59;;;;;;;2.85;2.60;;;;;;;17.16;60.62;93276.66;5020172;28;20479;-46
2022/08/01 05:59:25;;;;;;;4.15;2.80;;;;;;;17.28;59.62;93273.97;5018615;28;20135;-50
2022/08/01 06:01:51;;;;;;;3.30;2.58;;;;;;;17.21;60.23;93272.09;5021786;28;20085;-52
2022/08/01 06:04:16;;;;;;;7.95;2.78;;;;;;;17.34;60.51;93277.16;5023772;28;20131;-49
2022/08/01 06:06:42;;;;;;;4.47;2.95;;;;;;;17.41;60.28;93267.84;5012361;28;20588;-48
2022/08/01 06:09:07;;;;;;;5.07;3.08;;;;;;;17.34;59.39;93257.59;5019984;28;20033;-47
2022/08/01 06:11:32;;;;;;;4.28;2.40;;;;;;;17.55;58.89;93285.53;5020300;28;20024;-48
2022/08/01 06:13:58;;;;;;;5.68;2.58;;;;;;;17.56;57.76;93281.44;5019811;28;20491;-46
2022/08/01 06:16:24;;;;;;;4.97;3.33;;;;;;;17.70;58.49;93276.03;5028554;28;20021;-50
2022/08/01 06:18:49;;;;;;;5.90;2.60;;;;;;;17.77;58.15;93266.72;5027782;28;20517;-47
2022/08/01 06:21:14;;;;;;;2.50;2.30;;;;;;;17.79;57.58;93269.63;5028351;28;20014;-48
2022/08/01 06:23:42;;;;;;;2.95;2.65;;;;;;;17.82;58.70;93268.44;5026248;28;20060;-52
2022/08/01 06:26:07;;;;;;;2.55;2.35;;;;;;;17.95;58.49;93279.78;5026002;28;20033;-49
2022/08/01 06:28:33;;;;;;;6.10;2.75;;;;;;;17.99;57.92;93256.97;5025899;28;20026;-52
2022/08/01 06:30:59;;;;;;;2.75;2.45;;;;;;;18.12;57.69;93267.56;5026046;28;20048;-47
2022/08/01 06:33:25;;;;;;;8.20;2.58;;;;;;;18.10;57.50;93265.38;5023184;28;20179;-47
2022/08/01 06:35:50;;;;;;;4.30;2.45;;;;;;;18.14;56.58;93262.13;5025638;28;20029;-49
2022/08/01 06:38:16;;;;;;;2.83;2.58;;;;;;;18.18;56.54;93265.91;5025872;28;20037;-49
2022/08/01 06:40:42;;;;;;;3.80;2.30;;;;;;;18.11;56.68;93247.28;5028640;28;20039;-47
2022/08/01 06:43:07;;;;;;;5.90;2.60;;;;;;;18.25;56.18;93263.47;5025961;28;20041;-48
2022/08/01 06:45:33;;;;;;;4.38;2.95;;;;;;;18.26;56.16;93271.25;5028002;28;20132;-51
2022/08/01 06:47:58;;;;;;;3.00;2.70;;;;;;;18.33;55.70;93267.50;5029634;28;20056;-50
2022/08/01 06:50:24;;;;;;;3.75;2.10;;;;;;;18.50;54.68;93253.22;5029824;28;20053;-45
2022/08/01 06:52:49;;;;;;;7.18;2.10;;;;;;;18.60;55.14;93255.91;5029016;28;20099;-47
2022/08/01 06:55:15;;;;;;;2.92;2.20;;;;;;;18.80;54.76;93249.47;5029650;28;20032;-47
2022/08/01 06:57:51;;;;;;;2.22;1.92;;;;;;;18.84;54.05;93260.19;5028113;28;20029;-49
2022/08/01 07:00:20;;;;;;;2.00;1.75;;;;;;;18.92;54.79;93266.28;5028118;28;20021;-49
2022/08/01 07:02:46;;;;;;;7.38;2.20;;;;;;;18.99;53.83;93254.13;5029649;28;20163;-47
2022/08/01 07:05:12;;;;;;;2.00;1.80;;;;;;;19.04;52.85;93235.47;5029449;28;20109;-48
2022/08/01 07:07:38;;;;;;;9.77;2.58;;;;;;;19.15;51.90;93234.72;5026936;28;20036;-54
2022/08/01 07:10:04;;;;;;;2.97;2.58;;;;;;;19.16;53.62;93248.13;5027456;28;20018;-49
2022/08/01 07:12:30;;;;;;;2.28;1.67;;;;;;;19.39;51.84;93250.91;5030487;28;20038;-47
2022/08/01 07:14:55;;;;;;;4.85;1.75;;;;;;;19.54;51.44;93244.78;5030807;28;20044;-48
2022/08/01 07:17:20;;;;;;;2.20;1.63;;;;;;;19.49;50.94;93240.28;5031332;28;20022;-47
2022/08/01 07:19:47;;;;;;;2.10;1.90;;;;;;;19.66;52.06;93253.16;5030112;28;20021;-45
2022/08/01 07:22:13;;;;;;;5.45;2.40;;;;;;;19.67;52.12;93255.34;5031126;28;20092;-53
2022/08/01 07:24:39;;;;;;;3.15;1.85;;;;;;;19.83;50.59;93261.16;5031459;28;20717;-45
2022/08/01 07:27:05;;;;;;;3.50;1.95;;;;;;;19.77;50.75;93244.00;5031066;28;20033;-46
2022/08/01 07:29:30;;;;;;;2.90;2.60;;;;;;;20.02;51.42;93251.69;5030444;28;20017;-47
2022/08/01 07:31:57;;;;;;;3.83;2.47;;;;;;;20.40;50.36;93256.63;5030383;28;20022;-46
2022/08/01 07:34:24;;;;;;;3.42;2.03;;;;;;;20.54;50.96;93237.03;5030563;28;20103;-49
2022/08/01 07:36:50;;;;;;;2.67;2.13;;;;;;;20.92;49.07;93251.03;5027831;28;20033;-46
2022/08/01 07:39:15;;;;;;;2.35;2.15;;;;;;;21.64;48.65;93251.25;5030093;28;20056;-50
2022/08/01 07:41:41;;;;;;;2.13;1.83;;;;;;;22.96;44.56;93250.56;5030747;28;20021;-46
2022/08/01 07:44:06;;;;;;;2.58;1.70;;;;;;;23.46;43.23;93254.91;5030270;28;20025;-51
2022/08/01 07:46:32;;;;;;;6.45;1.98;;;;;;;23.33;43.41;93256.47;5030346;28;20060;-47
2022/08/01 07:48:57;;;;;;;3.03;2.03;;;;;;;24.52;41.26;93238.88;5031128;28;20487;-45
2022/08/01 07:51:23;;;;;;;3.25;1.90;;;;;;;25.81;38.83;93249.34;5030594;28;20679;-52
2022/08/01 07:53:48;;;;;;;9.05;2.15;;;;;;;26.29;37.81;93234.00;5030706;28;20119;-48
2022/08/01 07:56:14;;;;;;;1.88;1.70;;;;;;;26.53;37.35;93256.69;5028990;28;20146;-50
2022/08/01 07:58:39;;;;;;;1.75;1.65;;;;;;;26.14;37.32;93259.69;5029525;28;20021;-47
2022/08/01 08:01:04;;;;;;;1.88;1.73;;;;;;;25.60;38.10;93252.81;5028512;28;20041;-50
2022/08/01 08:03:30;;;;;;;2.05;1.80;;;;;;;25.04;39.72;93262.03;5028804;28;20045;-47
2022/08/01 08:05:55;;;;;;;3.00;2.13;;;;;;;24.27;40.89;93267.50;5028436;28;20454;-47
2022/08/01 08:08:21;;;;;;;3.45;2.13;;;;;;;24.00;39.30;93253.66;5028259;28;20092;-47
2022/08/01 08:10:47;;;;;;;2.38;1.90;;;;;;;23.85;41.03;93258.00;5028771;28;20037;-45
2022/08/01 08:13:13;;;;;;;8.95;2.15;;;;;;;23.82;42.22;93253.63;5027989;28;20028;-48
2022/08/01 08:15:38;;;;;;;2.15;1.90;;;;;;;23.73;43.89;93263.16;5026481;28;20025;-45
2022/08/01 08:18:04;;;;;;;4.10;1.70;;;;;;;23.66;40.88;93246.59;5029543;28;20560;-48
2022/08/01 08:20:30;;;;;;;2.22;1.80;;;;;;;24.33;41.01;93258.56;5029988;28;20031;-49
2022/08/01 08:22:57;;;;;;;3.92;1.88;;;;;;;24.40;39.95;93263.81;5030349;28;20063;-49
2022/08/01 08:25:23;;;;;;;3.22;1.80;;;;;;;23.73;40.75;93274.41;5027794;28;20021;-46
2022/08/01 08:27:49;;;;;;;5.47;1.67;;;;;;;23.93;41.44;93274.53;5029170;28;20037;-49
2022/08/01 08:30:15;;;;;;;2.03;1.40;;;;;;;24.47;41.12;93261.97;5028940;28;20022;-46
2022/08/01 08:32:41;;;;;;;2.95;1.50;;;;;;;24.74;40.07;93270.06;5020755;28;20022;-47
2022/08/01 08:35:07;;;;;;;2.45;1.73;;;;;;;24.61;39.47;93273.78;5009218;28;20495;-46
2022/08/01 08:37:34;;;;;;;4.30;1.60;;;;;;;24.90;38.41;93264.34;5010375;28;20022;-46
2022/08/01 08:40:00;;;;;;;6.70;1.95;;;;;;;25.19;38.22;93235.75;5012506;28;20030;-51
2022/08/01 08:42:26;;;;;;;1.95;1.60;;;;;;;25.35;37.78;93256.16;5018678;28;20083;-46
2022/08/01 08:44:54;;;;;;;1.45;1.35;;;;;;;25.64;38.10;93257.91;5020953;28;20159;-46
2022/08/01 08:47:20;;;;;;;1.30;1.20;;;;;;;25.29;36.43;93259.50;5029916;28;20025;-45
2022/08/01 08:49:46;;;;;;;1.65;1.52;;;;;;;25.56;37.27;93247.75;5028349;28;20490;-50
2022/08/01 08:52:12;;;;;;;2.00;1.80;;;;;;;25.61;36.09;93259.94;5028500;28;20022;-51
2022/08/01 08:54:38;;;;;;;2.35;1.90;;;;;;;25.14;36.05;93249.03;5029716;28;20562;-46
2022/08/01 08:57:04;;;;;;;1.42;1.33;;;;;;;25.11;37.59;93253.16;5028661;28;20029;-49
2022/08/01 08:59:30;;;;;;;2.35;1.20;;;;;;;25.53;37.41;93254.00;5029210;28;20100;-50
2022/08/01 09:01:57;;;;;;;1.58;1.48;;;;;;;25.33;37.66;93248.31;5029219;28;20088;-56
2022/08/01 09:04:23;;;;;;;1.73;1.63;;;;;;;25.36;37.63;93247.00;5029194;28;20546;-48
2022/08/01 09:06:48;;;;;;;1.58;1.25;;;;;;;25.59;36.85;93242.91;5019641;28;20116;-48
2022/08/01 09:09:14;;;;;;;3.63;1.70;;;;;;;26.01;37.13;93250.00;5022770;28;20069;-47
2022/08/01 09:11:39;;;;;;;3.28;1.50;;;;;;;26.80;34.88;93232.78;5020482;28;20032;-45
2022/08/01 09:14:10;;;;;;;2.35;1.20;;;;;;;26.97;34.54;93238.25;5009100;28;20076;-45
2022/08/01 09:16:39;;;;;;;1.85;1.10;;;;;;;26.51;34.63;93239.63;5017337;28;20384;-48
2022/08/01 09:19:08;;;;;;;1.77;1.67;;;;;;;26.33;34.61;93241.16;5009068;28;20196;-44
2022/08/01 09:21:34;;;;;;;2.20;1.40;;;;;;;27.53;32.15;93233.53;5007921;28;20029;-45
2022/08/01 09:24:02;;;;;;;1.42;1.08;;;;;;;28.62;30.85;93224.28;5007703;28;20113;-43
2022/08/01 09:26:36;;;;;;;3.30;1.83;;;;;;;28.76;31.55;93231.00;5007507;28;20045;-45
2022/08/01 09:29:06;;;;;;;1.00;1.00;;;;;;;29.48;30.31;93231.88;5007691;28;20112;-48
2022/08/01 09:31:42;;;;;;;1.20;1.10;;;;;;;29.40;29.91;93233.84;5007690;28;20022;-42
2022/08/01 09:34:09;;;;;;;3.15;1.40;;;;;;;29.60;28.54;93228.56;5007739;28;20084;-41
2022/08/01 09:36:48;;;;;;;1.38;1.27;;;;;;;30.81;29.14;93239.28;5007543;28;20026;-47
2022/08/01 09:39:14;;;;;;;1.55;1.45;;;;;;;31.04;28.83;93227.53;5009165;28;20117;-46
2022/08/01 09:41:40;;;;;;;1.33;1.25;;;;;;;30.11;29.57;93222.44;5009125;28;20503;-47
2022/08/01 09:44:06;;;;;;;2.10;1.35;;;;;;;29.74;29.95;93220.31;5013968;28;20030;-45
2022/08/01 09:46:31;;;;;;;2.03;1.05;;;;;;;29.63;28.47;93224.34;5028704;28;20490;-47
2022/08/01 09:49:07;;;;;;;1.90;1.15;;;;;;;29.13;30.65;93236.09;5027411;28;20025;-46
2022/08/01 09:51:35;;;;;;;1.60;1.50;;;;;;;28.72;29.32;93227.38;5028376;28;20104;-43
2022/08/01 09:54:05;;;;;;;1.85;1.38;;;;;;;28.39;34.22;93237.91;5028775;28;20151;-45
2022/08/01 09:56:39;;;;;;;1.55;1.35;;;;;;;28.27;32.25;93237.63;5028598;28;20033;-49
2022/08/01 09:59:05;;;;;;;1.50;1.40;;;;;;;28.04;31.93;93234.91;5028106;28;20490;-45
2022/08/01 10:01:46;;;;;;;1.63;1.52;;;;;;;29.32;32.18;93231.56;5027661;28;20037;-46
2022/08/01 10:04:17;;;;;;;1.30;1.17;;;;;;;30.10;28.36;93229.56;5027547;28;20108;-48
2022/08/01 10:06:52;;;;;;;3.33;1.65;;;;;;;29.46;29.88;93223.31;5027624;28;20091;-47
2022/08/01 10:09:32;;;;;;;3.08;1.85;;;;;;;30.02;28.69;93212.31;5029329;28;20029;-45
2022/08/01 10:11:59;;;;;;;2.17;1.58;;;;;;;32.02;26.99;93224.53;5029867;28;20017;-44
2022/08/01 10:14:27;;;;;;;1.20;1.10;;;;;;;33.01;24.02;93211.81;5031355;28;20113;-47
2022/08/01 10:16:53;;;;;;;1.92;1.55;;;;;;;33.71;23.83;93217.22;5031614;28;20026;-43
2022/08/01 10:19:21;;;;;;;1.67;1.27;;;;;;;33.79;22.74;93211.53;5030177;28;20083;-48
2022/08/01 10:21:49;;;;;;;4.20;1.45;;;;;;;33.82;23.93;93212.97;5031525;28;20345;-45
2022/08/01 10:24:15;;;;;;;2.05;1.35;;;;;;;34.28;23.42;93215.97;5029589;28;20033;-47
2022/08/01 10:26:41;;;;;;;1.85;1.30;;;;;;;35.03;23.11;93201.69;5029234;28;20048;-47
2022/08/01 10:29:07;;;;;;;1.55;1.45;;;;;;;34.85;21.81;93213.16;5030465;28;20494;-47
2022/08/01 10:31:32;;;;;;;3.00;1.33;;;;;;;35.07;23.09;93221.75;5031955;28;20411;-47
2022/08/01 10:34:00;;;;;;;3.20;1.70;;;;;;;33.98;24.39;93218.03;5032176;28;20564;-47
2022/08/01 10:36:25;;;;;;;2.22;1.90;;;;;;;33.90;25.26;93206.53;5031717;28;20033;-51
2022/08/01 10:38:52;;;;;;;3.55;1.42;;;;;;;33.13;24.42;93202.59;5026933;28;20030;-51
2022/08/01 10:41:18;;;;;;;1.98;1.65;;;;;;;32.83;27.21;93194.53;5032066;28;20112;-47
2022/08/01 10:43:44;;;;;;;2.20;1.50;;;;;;;32.53;26.98;93197.16;5028629;28;20040;-49
2022/08/01 10:46:10;;;;;;;2.30;1.48;;;;;;;32.92;25.35;93201.03;5029476;28;20017;-47
2022/08/01 10:49:00;;;;;;;3.15;1.38;;;;;;;33.03;25.84;93203.25;5031880;28;20021;-54
2022/08/01 10:51:26;;;;;;;1.58;1.45;;;;;;;32.17;25.66;93203.25;5029549;28;20398;-48
2022/08/01 10:53:53;;;;;;;4.22;1.83;;;;;;;31.90;24.74;93192.97;5031764;28;20117;-50
2022/08/01 10:56:19;;;;;;;1.35;1.05;;;;;;;32.45;25.15;93189.22;5031633;28;20025;-46
2022/08/01 10:58:47;;;;;;;1.83;1.48;;;;;;;32.63;27.09;93205.81;5030784;28;20095;-49
2022/08/01 11:01:21;;;;;;;3.95;1.60;;;;;;;33.08;24.03;93201.13;5032395;28;20538;-49
2022/08/01 11:04:08;;;;;;;4.97;1.60;;;;;;;32.68;25.56;93196.56;5032692;28;20023;-51
2022/08/01 11:06:33;;;;;;;1.60;1.50;;;;;;;32.57;24.98;93195.03;5032986;28;20021;-50
2022/08/01 11:09:06;;;;;;;3.78;1.80;;;;;;;31.89;27.04;93202.94;5032689;28;20407;-49
2022/08/01 11:11:31;;;;;;;4.38;1.20;;;;;;;32.02;28.53;93196.69;5031400;28;20566;-47
2022/08/01 11:14:33;;;;;;;1.80;1.48;;;;;;;32.33;26.73;93206.25;5032608;28;20067;-48
2022/08/01 11:16:51;;;;;;;1.70;1.42;;;;;;;31.53;26.92;93206.13;5028326;28;20040;-48
2022/08/01 11:19:17;;;;;;;2.50;1.80;;;;;;;30.92;27.44;93198.13;5030545;28;20021;-49
2022/08/01 11:21:59;;;;;;;1.65;1.55;;;;;;;30.14;29.53;93200.41;5027565;28;20013;-47
2022/08/01 11:24:46;;;;;;;3.45;1.77;;;;;;;30.43;28.88;93194.53;5029367;28;20045;-46
2022/08/01 11:27:18;;;;;;;1.52;1.42;;;;;;;30.87;28.18;93180.25;5031372;28;20804;-52
2022/08/01 11:30:10;;;;;;;4.75;1.50;;;;;;;30.16;28.36;93184.09;5031593;28;20537;-57
2022/08/01 11:32:50;;;;;;;11.23;2.60;;;;;;;29.75;30.54;93173.41;5030684;28;20025;-50
2022/08/01 11:35:16;;;;;;;2.03;1.77;;;;;;;29.21;31.35;93176.63;5029454;28;20048;-54